sensor_id;sensor_type;location;lat;lon;timestamp;pressure;altitude;pressure_sealevel;temperature;humidity
8051;BME280;4068;42.158;24.732;2023-02-24T00:01:23;99978.78;;;6.94;100.00
8051;BME280;4068;42.158;24.732;2023-02-24T00:04:05;99977.78;;;6.96;100.00
8051;BME280;4068;42.158;24.732;2023-02-24T00:06:36;99981.09;;;6.84;100.00
8051;BME280;4068;42.158;24.732;2023-02-24T00:09:08;99973.19;;;6.84;100.00
8051;BME280;4068;42.158;24.732;2023-02-24T00:11:38;99976.44;;;6.89;100.00
8051;BME280;4068;42.158;24.732;2023-02-24T00:14:09;99977.09;;;6.93;100.00
8051;BME280;4068;42.158;24.732;2023-02-24T00:16:35;99968.78;;;6.84;100.00
8051;BME280;4068;42.158;24.732;2023-02-24T00:19:02;99960.28;;;6.79;100.00
8051;BME280;4068;42.158;24.732;2023-02-24T00:21:29;99957.44;;;6.68;100.00
8051;BME280;4068;42.158;24.732;2023-02-24T00:23:55;99967.59;;;6.74;100.00
8051;BME280;4068;42.158;24.732;2023-02-24T00:26:24;99965.94;;;6.73;100.00
8051;BME280;4068;42.158;24.732;2023-02-24T00:28:49;99963.84;;;6.78;100.00
8051;BME280;4068;42.158;24.732;2023-02-24T00:31:17;99946.13;;;6.66;100.00
8051;BME280;4068;42.158;24.732;2023-02-24T00:33:44;99938.47;;;6.61;100.00
8051;BME280;4068;42.158;24.732;2023-02-24T00:36:16;99955.81;;;6.81;100.00
8051;BME280;4068;42.158;24.732;2023-02-24T00:38:52;99954.53;;;6.72;100.00
8051;BME280;4068;42.158;24.732;2023-02-24T00:41:22;99953.19;;;6.65;100.00
8051;BME280;4068;42.158;24.732;2023-02-24T00:43:49;99958.03;;;6.73;100.00
8051;BME280;4068;42.158;24.732;2023-02-24T00:46:16;99958.44;;;6.65;100.00
8051;BME280;4068;42.158;24.732;2023-02-24T00:48:43;99954.13;;;6.64;100.00
8051;BME280;4068;42.158;24.732;2023-02-24T00:51:11;99947.59;;;6.55;100.00
8051;BME280;4068;42.158;24.732;2023-02-24T00:53:38;99944.53;;;6.63;100.00
8051;BME280;4068;42.158;24.732;2023-02-24T00:56:09;99945.88;;;6.70;100.00
8051;BME280;4068;42.158;24.732;2023-02-24T00:58:38;99936.25;;;6.69;100.00
8051;BME280;4068;42.158;24.732;2023-02-24T01:01:04;99925.66;;;6.55;100.00
8051;BME280;4068;42.158;24.732;2023-02-24T01:03:37;99904.94;;;6.49;100.00
8051;BME280;4068;42.158;24.732;2023-02-24T01:06:03;99933.28;;;6.60;100.00
8051;BME280;4068;42.158;24.732;2023-02-24T01:08:29;99930.53;;;6.47;100.00
8051;BME280;4068;42.158;24.732;2023-02-24T01:10:58;99913.72;;;6.33;100.00
8051;BME280;4068;42.158;24.732;2023-02-24T01:13:46;99916.97;;;6.38;100.00
8051;BME280;4068;42.158;24.732;2023-02-24T01:16:12;99926.72;;;6.36;100.00
8051;BME280;4068;42.158;24.732;2023-02-24T01:18:43;99913.13;;;6.28;100.00
8051;BME280;4068;42.158;24.732;2023-02-24T01:21:08;99897.22;;;6.30;100.00
8051;BME280;4068;42.158;24.732;2023-02-24T01:23:36;99893.94;;;6.26;100.00
8051;BME280;4068;42.158;24.732;2023-02-24T01:26:02;99918.88;;;6.51;100.00
8051;BME280;4068;42.158;24.732;2023-02-24T01:28:28;99879.66;;;6.30;100.00
8051;BME280;4068;42.158;24.732;2023-02-24T01:30:54;99921.59;;;6.49;100.00
8051;BME280;4068;42.158;24.732;2023-02-24T01:33:26;99914.47;;;6.51;100.00
8051;BME280;4068;42.158;24.732;2023-02-24T01:35:51;99918.69;;;6.54;100.00
8051;BME280;4068;42.158;24.732;2023-02-24T01:38:19;99891.09;;;6.45;100.00
8051;BME280;4068;42.158;24.732;2023-02-24T01:40:55;99900.78;;;6.45;100.00
8051;BME280;4068;42.158;24.732;2023-02-24T01:43:21;99921.59;;;6.49;100.00
8051;BME280;4068;42.158;24.732;2023-02-24T01:45:46;99922.00;;;6.57;100.00
8051;BME280;4068;42.158;24.732;2023-02-24T01:48:15;99915.41;;;6.50;100.00
8051;BME280;4068;42.158;24.732;2023-02-24T01:50:42;99885.34;;;6.38;100.00
8051;BME280;4068;42.158;24.732;2023-02-24T01:53:09;99914.00;;;6.59;100.00
8051;BME280;4068;42.158;24.732;2023-02-24T01:55:44;99911.38;;;6.59;100.00
8051;BME280;4068;42.158;24.732;2023-02-24T01:58:23;99904.69;;;6.53;100.00
8051;BME280;4068;42.158;24.732;2023-02-24T02:00:50;99910.69;;;6.55;100.00
8051;BME280;4068;42.158;24.732;2023-02-24T02:03:21;99908.06;;;6.55;100.00
8051;BME280;4068;42.158;24.732;2023-02-24T02:05:48;99878.09;;;6.42;100.00
8051;BME280;4068;42.158;24.732;2023-02-24T02:08:17;99924.38;;;6.62;100.00
8051;BME280;4068;42.158;24.732;2023-02-24T02:10:44;99918.53;;;6.57;100.00
8051;BME280;4068;42.158;24.732;2023-02-24T02:13:13;99904.69;;;6.53;100.00
8051;BME280;4068;42.158;24.732;2023-02-24T02:16:01;99914.94;;;6.58;100.00
8051;BME280;4068;42.158;24.732;2023-02-24T02:21:26;99909.19;;;6.51;100.00
8051;BME280;4068;42.158;24.732;2023-02-24T02:24:17;99886.09;;;6.41;100.00
8051;BME280;4068;42.158;24.732;2023-02-24T02:37:46;99905.59;;;6.52;100.00
8051;BME280;4068;42.158;24.732;2023-02-24T02:40:38;99908.25;;;6.52;100.00
8051;BME280;4068;42.158;24.732;2023-02-24T02:43:13;99912.41;;;6.56;100.00
8051;BME280;4068;42.158;24.732;2023-02-24T02:45:46;99882.22;;;6.32;100.00
8051;BME280;4068;42.158;24.732;2023-02-24T02:48:26;99907.69;;;6.31;100.00
8051;BME280;4068;42.158;24.732;2023-02-24T02:51:04;99903.28;;;6.32;100.00
8051;BME280;4068;42.158;24.732;2023-02-24T02:53:34;99919.31;;;6.43;100.00
8051;BME280;4068;42.158;24.732;2023-02-24T02:56:14;99923.72;;;6.43;100.00
8051;BME280;4068;42.158;24.732;2023-02-24T02:58:47;99935.88;;;6.45;100.00
8051;BME280;4068;42.158;24.732;2023-02-24T03:01:15;99904.03;;;6.34;100.00
8051;BME280;4068;42.158;24.732;2023-02-24T03:03:45;99934.50;;;6.54;100.00
8051;BME280;4068;42.158;24.732;2023-02-24T03:06:22;99932.81;;;6.53;100.00
8051;BME280;4068;42.158;24.732;2023-02-24T03:09:27;99933.56;;;6.55;100.00
8051;BME280;4068;42.158;24.732;2023-02-24T03:11:58;99934.41;;;6.55;100.00
8051;BME280;4068;42.158;24.732;2023-02-24T03:14:29;99932.91;;;6.51;100.00
8051;BME280;4068;42.158;24.732;2023-02-24T03:16:58;99931.13;;;6.52;100.00
8051;BME280;4068;42.158;24.732;2023-02-24T03:19:28;99905.88;;;6.48;100.00
8051;BME280;4068;42.158;24.732;2023-02-24T03:22:17;99929.81;;;6.59;100.00
8051;BME280;4068;42.158;24.732;2023-02-24T03:24:44;99926.16;;;6.62;100.00
8051;BME280;4068;42.158;24.732;2023-02-24T03:27:15;99928.00;;;6.76;100.00
8051;BME280;4068;42.158;24.732;2023-02-24T03:34:54;99918.97;;;6.49;100.00
8051;BME280;4068;42.158;24.732;2023-02-24T03:37:22;99925.16;;;6.48;100.00
8051;BME280;4068;42.158;24.732;2023-02-24T03:39:52;99917.25;;;6.48;100.00
8051;BME280;4068;42.158;24.732;2023-02-24T03:42:19;99914.47;;;6.51;100.00
8051;BME280;4068;42.158;24.732;2023-02-24T03:44:46;99910.88;;;6.52;100.00
8051;BME280;4068;42.158;24.732;2023-02-24T03:47:13;99889.00;;;6.36;100.00
8051;BME280;4068;42.158;24.732;2023-02-24T03:49:43;99908.00;;;6.57;100.00
8051;BME280;4068;42.158;24.732;2023-02-24T04:03:17;99889.56;;;6.41;100.00
8051;BME280;4068;42.158;24.732;2023-02-24T04:07:03;99904.75;;;6.52;100.00
8051;BME280;4068;42.158;24.732;2023-02-24T04:09:03;99897.44;;;6.57;100.00
8051;BME280;4068;42.158;24.732;2023-02-24T04:11:40;99902.63;;;6.59;100.00
8051;BME280;4068;42.158;24.732;2023-02-24T04:14:09;99868.06;;;6.49;100.00
8051;BME280;4068;42.158;24.732;2023-02-24T04:16:45;99892.25;;;6.55;100.00
8051;BME280;4068;42.158;24.732;2023-02-24T04:19:16;99879.81;;;6.43;100.00
8051;BME280;4068;42.158;24.732;2023-02-24T04:21:44;99872.66;;;6.45;100.00
8051;BME280;4068;42.158;24.732;2023-02-24T04:24:13;99896.94;;;6.50;100.00
8051;BME280;4068;42.158;24.732;2023-02-24T04:26:42;99895.06;;;6.52;100.00
8051;BME280;4068;42.158;24.732;2023-02-24T04:29:11;99873.75;;;6.57;100.00
8051;BME280;4068;42.158;24.732;2023-02-24T04:31:50;99876.66;;;6.67;100.00
8051;BME280;4068;42.158;24.732;2023-02-24T04:34:17;99875.44;;;6.72;100.00
8051;BME280;4068;42.158;24.732;2023-02-24T04:36:47;99878.38;;;6.82;100.00
8051;BME280;4068;42.158;24.732;2023-02-24T04:39:18;99872.38;;;6.80;100.00
8051;BME280;4068;42.158;24.732;2023-02-24T04:41:45;99866.22;;;6.80;100.00
8051;BME280;4068;42.158;24.732;2023-02-24T04:44:23;99870.16;;;6.72;100.00
8051;BME280;4068;42.158;24.732;2023-02-24T04:46:50;99878.94;;;6.73;100.00
8051;BME280;4068;42.158;24.732;2023-02-24T04:49:16;99872.59;;;6.61;100.00
8051;BME280;4068;42.158;24.732;2023-02-24T04:51:42;99875.41;;;6.58;100.00
8051;BME280;4068;42.158;24.732;2023-02-24T04:54:13;99867.69;;;6.55;100.00
8051;BME280;4068;42.158;24.732;2023-02-24T04:56:42;99844.63;;;6.44;100.00
8051;BME280;4068;42.158;24.732;2023-02-24T04:59:09;99860.19;;;6.63;100.00
8051;BME280;4068;42.158;24.732;2023-02-24T05:01:39;99874.69;;;6.70;100.00
8051;BME280;4068;42.158;24.732;2023-02-24T05:04:06;99867.72;;;6.69;100.00
8051;BME280;4068;42.158;24.732;2023-02-24T05:06:33;99852.72;;;6.55;100.00
8051;BME280;4068;42.158;24.732;2023-02-24T05:08:59;99874.78;;;6.69;100.00
8051;BME280;4068;42.158;24.732;2023-02-24T05:11:26;99873.09;;;6.68;100.00
8051;BME280;4068;42.158;24.732;2023-02-24T05:13:59;99876.94;;;6.62;100.00
8051;BME280;4068;42.158;24.732;2023-02-24T05:16:24;99873.16;;;6.52;100.00
8051;BME280;4068;42.158;24.732;2023-02-24T05:18:53;99874.38;;;6.61;100.00
8051;BME280;4068;42.158;24.732;2023-02-24T05:21:38;99867.53;;;6.72;100.00
8051;BME280;4068;42.158;24.732;2023-02-24T05:24:06;99870.44;;;6.68;100.00
8051;BME280;4068;42.158;24.732;2023-02-24T05:26:35;99878.16;;;6.71;100.00
8051;BME280;4068;42.158;24.732;2023-02-24T05:29:03;99870.72;;;6.63;100.00
8051;BME280;4068;42.158;24.732;2023-02-24T05:31:29;99875.44;;;6.72;100.00
8051;BME280;4068;42.158;24.732;2023-02-24T05:33:57;99875.28;;;6.76;100.00
8051;BME280;4068;42.158;24.732;2023-02-24T05:36:24;99874.81;;;6.83;100.00
8051;BME280;4068;42.158;24.732;2023-02-24T05:38:52;99881.50;;;6.74;100.00
8051;BME280;4068;42.158;24.732;2023-02-24T05:41:33;99875.34;;;6.74;100.00
8051;BME280;4068;42.158;24.732;2023-02-24T05:44:02;99869.53;;;6.83;100.00
8051;BME280;4068;42.158;24.732;2023-02-24T05:46:31;99848.94;;;6.76;100.00
8051;BME280;4068;42.158;24.732;2023-02-24T05:49:02;99868.34;;;7.03;100.00
8051;BME280;4068;42.158;24.732;2023-02-24T05:51:31;99881.91;;;7.12;100.00
8051;BME280;4068;42.158;24.732;2023-02-24T05:54:05;99858.06;;;6.84;100.00
8051;BME280;4068;42.158;24.732;2023-02-24T05:56:32;99882.66;;;6.99;100.00
8051;BME280;4068;42.158;24.732;2023-02-24T05:59:03;99883.31;;;7.03;100.00
8051;BME280;4068;42.158;24.732;2023-02-24T06:01:36;99878.06;;;7.03;100.00
8051;BME280;4068;42.158;24.732;2023-02-24T06:04:04;99889.63;;;7.00;100.00
8051;BME280;4068;42.158;24.732;2023-02-24T06:06:42;99895.94;;;7.12;100.00
8051;BME280;4068;42.158;24.732;2023-02-24T06:09:10;99894.91;;;7.15;100.00
8051;BME280;4068;42.158;24.732;2023-02-24T06:11:41;99890.03;;;7.08;100.00
8051;BME280;4068;42.158;24.732;2023-02-24T06:14:08;99855.88;;;6.91;100.00
8051;BME280;4068;42.158;24.732;2023-02-24T06:16:36;99884.56;;;7.12;100.00
8051;BME280;4068;42.158;24.732;2023-02-24T06:19:02;99888.13;;;7.11;100.00
8051;BME280;4068;42.158;24.732;2023-02-24T06:21:29;99838.09;;;6.80;100.00
8051;BME280;4068;42.158;24.732;2023-02-24T06:23:55;99881.53;;;7.03;100.00
8051;BME280;4068;42.158;24.732;2023-02-24T06:26:22;99854.56;;;6.98;100.00
8051;BME280;4068;42.158;24.732;2023-02-24T06:28:51;99879.78;;;7.18;100.00
8051;BME280;4068;42.158;24.732;2023-02-24T06:31:18;99894.19;;;7.13;100.00
8051;BME280;4068;42.158;24.732;2023-02-24T06:33:45;99888.91;;;7.13;100.00
8051;BME280;4068;42.158;24.732;2023-02-24T06:36:11;99879.66;;;7.05;100.00
8051;BME280;4068;42.158;24.732;2023-02-24T06:38:39;99888.50;;;7.19;100.00
8051;BME280;4068;42.158;24.732;2023-02-24T06:41:05;99871.28;;;7.13;100.00
8051;BME280;4068;42.158;24.732;2023-02-24T06:43:44;99875.91;;;7.24;100.00
8051;BME280;4068;42.158;24.732;2023-02-24T06:46:14;99876.66;;;7.26;100.00
8051;BME280;4068;42.158;24.732;2023-02-24T06:48:41;99877.66;;;7.38;100.00
8051;BME280;4068;42.158;24.732;2023-02-24T06:51:09;99872.97;;;7.43;100.00
8051;BME280;4068;42.158;24.732;2023-02-24T06:53:38;99879.94;;;7.58;100.00
8051;BME280;4068;42.158;24.732;2023-02-24T06:56:15;99875.88;;;7.53;100.00
8051;BME280;4068;42.158;24.732;2023-02-24T06:58:46;99865.97;;;7.56;100.00
8051;BME280;4068;42.158;24.732;2023-02-24T07:01:14;99871.13;;;7.72;100.00
8051;BME280;4068;42.158;24.732;2023-02-24T07:03:40;99873.16;;;7.96;100.00
8051;BME280;4068;42.158;24.732;2023-02-24T07:06:25;99856.63;;;8.07;100.00
8051;BME280;4068;42.158;24.732;2023-02-24T07:08:52;99866.03;;;8.11;100.00
8051;BME280;4068;42.158;24.732;2023-02-24T07:11:19;99872.44;;;8.34;100.00
8051;BME280;4068;42.158;24.732;2023-02-24T07:13:46;99865.03;;;8.54;100.00
8051;BME280;4068;42.158;24.732;2023-02-24T07:16:17;99862.53;;;8.78;100.00
8051;BME280;4068;42.158;24.732;2023-02-24T07:18:43;99850.47;;;8.74;100.00
8051;BME280;4068;42.158;24.732;2023-02-24T07:21:14;99868.13;;;8.86;100.00
8051;BME280;4068;42.158;24.732;2023-02-24T07:23:42;99871.63;;;8.87;100.00
8051;BME280;4068;42.158;24.732;2023-02-24T07:26:16;99874.16;;;8.62;100.00
8051;BME280;4068;42.158;24.732;2023-02-24T07:28:43;99867.72;;;8.67;100.00
8051;BME280;4068;42.158;24.732;2023-02-24T07:31:11;99868.66;;;8.66;100.00
8051;BME280;4068;42.158;24.732;2023-02-24T07:33:38;99851.19;;;8.63;100.00
8051;BME280;4068;42.158;24.732;2023-02-24T07:36:05;99866.03;;;8.91;100.00
8051;BME280;4068;42.158;24.732;2023-02-24T07:38:37;99873.25;;;9.02;100.00
8051;BME280;4068;42.158;24.732;2023-02-24T07:41:04;99874.81;;;9.18;100.00
8051;BME280;4068;42.158;24.732;2023-02-24T07:43:35;99872.47;;;9.26;100.00
8051;BME280;4068;42.158;24.732;2023-02-24T07:46:05;99865.41;;;9.26;100.00
8051;BME280;4068;42.158;24.732;2023-02-24T07:48:32;99821.03;;;9.30;100.00
8051;BME280;4068;42.158;24.732;2023-02-24T07:50:57;99867.25;;;9.87;100.00
8051;BME280;4068;42.158;24.732;2023-02-24T07:53:23;99851.88;;;9.68;100.00
8051;BME280;4068;42.158;24.732;2023-02-24T07:55:51;99867.19;;;9.76;100.00
8051;BME280;4068;42.158;24.732;2023-02-24T07:58:18;99839.75;;;9.40;100.00
8051;BME280;4068;42.158;24.732;2023-02-24T08:00:43;99865.06;;;9.44;100.00
8051;BME280;4068;42.158;24.732;2023-02-24T08:03:27;99858.19;;;9.15;100.00
8051;BME280;4068;42.158;24.732;2023-02-24T08:05:57;99857.88;;;9.20;100.00
8051;BME280;4068;42.158;24.732;2023-02-24T08:08:38;99823.28;;;8.72;100.00
8051;BME280;4068;42.158;24.732;2023-02-24T08:11:23;99858.41;;;9.12;100.00
8051;BME280;4068;42.158;24.732;2023-02-24T08:13:49;99858.41;;;8.87;100.00
8051;BME280;4068;42.158;24.732;2023-02-24T08:16:15;99836.09;;;8.78;100.00
8051;BME280;4068;42.158;24.732;2023-02-24T08:18:40;99848.34;;;9.05;100.00
8051;BME280;4068;42.158;24.732;2023-02-24T08:21:16;99853.53;;;9.32;100.00
8051;BME280;4068;42.158;24.732;2023-02-24T08:23:45;99831.50;;;9.19;100.00
8051;BME280;4068;42.158;24.732;2023-02-24T08:26:11;99861.97;;;9.50;100.00
8051;BME280;4068;42.158;24.732;2023-02-24T08:28:39;99865.22;;;9.66;100.00
8051;BME280;4068;42.158;24.732;2023-02-24T08:31:05;99865.75;;;9.96;100.00
8051;BME280;4068;42.158;24.732;2023-02-24T08:33:30;99868.97;;;10.12;100.00
8051;BME280;4068;42.158;24.732;2023-02-24T08:35:56;99871.00;;;10.33;100.00
8051;BME280;4068;42.158;24.732;2023-02-24T08:38:25;99866.63;;;10.21;100.00
8051;BME280;4068;42.158;24.732;2023-02-24T08:40:52;99863.78;;;9.87;100.00
8051;BME280;4068;42.158;24.732;2023-02-24T08:45:56;99864.63;;;9.87;100.00
8051;BME280;4068;42.158;24.732;2023-02-24T08:48:26;99852.25;;;10.12;100.00
8051;BME280;4068;42.158;24.732;2023-02-24T08:53:48;99835.78;;;10.44;100.00
8051;BME280;4068;42.158;24.732;2023-02-24T08:56:18;99846.53;;;10.29;100.00
8051;BME280;4068;42.158;24.732;2023-02-24T08:58:52;99843.31;;;10.37;100.00
8051;BME280;4068;42.158;24.732;2023-02-24T09:01:25;99814.47;;;10.32;100.00
8051;BME280;4068;42.158;24.732;2023-02-24T09:03:56;99831.19;;;10.46;100.00
8051;BME280;4068;42.158;24.732;2023-02-24T09:06:36;99822.34;;;10.81;100.00
8051;BME280;4068;42.158;24.732;2023-02-24T09:09:02;99833.34;;;11.21;99.99
8051;BME280;4068;42.158;24.732;2023-02-24T09:11:58;99829.63;;;11.35;96.22
8051;BME280;4068;42.158;24.732;2023-02-24T09:14:29;99826.34;;;11.54;97.23
8051;BME280;4068;42.158;24.732;2023-02-24T09:17:01;99825.59;;;11.64;97.66
8051;BME280;4068;42.158;24.732;2023-02-24T09:19:35;99821.03;;;12.09;94.30
8051;BME280;4068;42.158;24.732;2023-02-24T09:22:24;99792.47;;;12.23;92.83
8051;BME280;4068;42.158;24.732;2023-02-24T09:28:06;99804.53;;;12.48;90.75
8051;BME280;4068;42.158;24.732;2023-02-24T09:30:37;99806.63;;;12.45;91.32
8051;BME280;4068;42.158;24.732;2023-02-24T09:33:11;99800.09;;;12.49;91.09
8051;BME280;4068;42.158;24.732;2023-02-24T09:36:00;99803.31;;;12.73;89.52
8051;BME280;4068;42.158;24.732;2023-02-24T09:44:05;99757.44;;;12.91;89.89
8051;BME280;4068;42.158;24.732;2023-02-24T09:46:44;99786.09;;;13.39;88.73
8051;BME280;4068;42.158;24.732;2023-02-24T09:49:18;99782.59;;;13.39;85.17
8051;BME280;4068;42.158;24.732;2023-02-24T09:51:45;99776.06;;;13.22;87.50
8051;BME280;4068;42.158;24.732;2023-02-24T09:54:19;99770.25;;;12.97;87.44
8051;BME280;4068;42.158;24.732;2023-02-24T09:57:02;99738.75;;;12.81;88.84
8051;BME280;4068;42.158;24.732;2023-02-24T09:59:56;99766.22;;;13.43;87.52
8051;BME280;4068;42.158;24.732;2023-02-24T10:02:51;99753.22;;;14.09;85.36
8051;BME280;4068;42.158;24.732;2023-02-24T10:05:32;99726.13;;;14.23;82.21
8051;BME280;4068;42.158;24.732;2023-02-24T10:08:06;99751.06;;;14.71;80.27
8051;BME280;4068;42.158;24.732;2023-02-24T10:10:38;99718.53;;;14.38;80.90
8051;BME280;4068;42.158;24.732;2023-02-24T10:13:13;99741.59;;;13.80;82.56
8051;BME280;4068;42.158;24.732;2023-02-24T10:15:45;99729.81;;;14.12;84.79
8051;BME280;4068;42.158;24.732;2023-02-24T10:18:39;99704.94;;;14.22;80.91
8051;BME280;4068;42.158;24.732;2023-02-24T10:21:15;99704.84;;;14.61;80.91
8051;BME280;4068;42.158;24.732;2023-02-24T10:23:54;99696.41;;;14.75;79.44
8051;BME280;4068;42.158;24.732;2023-02-24T10:26:36;99704.81;;;14.71;77.84
8051;BME280;4068;42.158;24.732;2023-02-24T10:34:59;99658.66;;;13.93;81.65
8051;BME280;4068;42.158;24.732;2023-02-24T10:37:25;99681.16;;;14.48;81.90
8051;BME280;4068;42.158;24.732;2023-02-24T10:40:02;99680.28;;;14.47;79.16
8051;BME280;4068;42.158;24.732;2023-02-24T10:42:34;99680.91;;;14.31;79.32
8051;BME280;4068;42.158;24.732;2023-02-24T10:47:38;99661.22;;;13.66;83.72
8051;BME280;4068;42.158;24.732;2023-02-24T10:50:20;99658.66;;;13.84;82.10
8051;BME280;4068;42.158;24.732;2023-02-24T10:52:47;99664.84;;;13.45;83.14
8051;BME280;4068;42.158;24.732;2023-02-24T10:55:35;99659.38;;;13.56;84.99
8051;BME280;4068;42.158;24.732;2023-02-24T10:58:37;99653.75;;;13.59;84.59
8051;BME280;4068;42.158;24.732;2023-02-24T11:01:14;99651.66;;;13.53;85.23
8051;BME280;4068;42.158;24.732;2023-02-24T11:04:11;99643.53;;;13.84;83.27
8051;BME280;4068;42.158;24.732;2023-02-24T11:06:47;99631.84;;;13.95;82.40
8051;BME280;4068;42.158;24.732;2023-02-24T11:09:23;99639.56;;;13.29;83.78
8051;BME280;4068;42.158;24.732;2023-02-24T11:11:54;99609.91;;;13.44;85.00
8051;BME280;4068;42.158;24.732;2023-02-24T11:14:56;99626.41;;;13.38;83.61
8051;BME280;4068;42.158;24.732;2023-02-24T11:17:59;99625.31;;;13.70;84.73
8051;BME280;4068;42.158;24.732;2023-02-24T11:20:44;99628.41;;;14.22;81.14
8051;BME280;4068;42.158;24.732;2023-02-24T11:23:21;99622.22;;;13.84;80.36
8051;BME280;4068;42.158;24.732;2023-02-24T11:25:53;99619.22;;;13.09;84.07
8051;BME280;4068;42.158;24.732;2023-02-24T11:29:05;99583.03;;;12.36;89.97
8051;BME280;4068;42.158;24.732;2023-02-24T11:37:29;99595.75;;;14.10;80.51
8051;BME280;4068;42.158;24.732;2023-02-24T11:40:06;99591.03;;;13.94;81.34
8051;BME280;4068;42.158;24.732;2023-02-24T11:43:31;99588.53;;;13.83;82.35
8051;BME280;4068;42.158;24.732;2023-02-24T11:46:11;99581.28;;;13.66;83.93
8051;BME280;4068;42.158;24.732;2023-02-24T11:48:58;99585.28;;;13.79;83.59
8051;BME280;4068;42.158;24.732;2023-02-24T11:51:30;99562.22;;;14.08;81.57
8051;BME280;4068;42.158;24.732;2023-02-24T11:54:12;99562.63;;;14.41;80.12
8051;BME280;4068;42.158;24.732;2023-02-24T11:56:47;99579.69;;;14.30;81.04
8051;BME280;4068;42.158;24.732;2023-02-24T11:59:36;99570.09;;;14.37;80.14
8051;BME280;4068;42.158;24.732;2023-02-24T12:02:38;99573.34;;;14.69;79.60
8051;BME280;4068;42.158;24.732;2023-02-24T12:05:17;99560.94;;;14.77;78.80
8051;BME280;4068;42.158;24.732;2023-02-24T12:07:53;99564.88;;;14.73;78.92
8051;BME280;4068;42.158;24.732;2023-02-24T12:15:47;99557.88;;;14.07;80.66
8051;BME280;4068;42.158;24.732;2023-02-24T12:18:37;99556.66;;;13.91;80.83
8051;BME280;4068;42.158;24.732;2023-02-24T12:21:10;99553.53;;;13.58;81.74
8051;BME280;4068;42.158;24.732;2023-02-24T12:23:42;99554.53;;;13.95;82.78
8051;BME280;4068;42.158;24.732;2023-02-24T12:40:38;99521.84;;;13.45;85.13
8051;BME280;4068;42.158;24.732;2023-02-24T12:46:06;99512.31;;;12.94;84.80
8051;BME280;4068;42.158;24.732;2023-02-24T12:51:33;99502.38;;;13.06;84.93
8051;BME280;4068;42.158;24.732;2023-02-24T12:54:09;99501.34;;;13.26;84.32
8051;BME280;4068;42.158;24.732;2023-02-24T12:56:50;99488.78;;;13.38;83.42
8051;BME280;4068;42.158;24.732;2023-02-24T12:59:24;99486.94;;;13.29;81.59
8051;BME280;4068;42.158;24.732;2023-02-24T13:02:03;99479.81;;;13.00;85.36
8051;BME280;4068;42.158;24.732;2023-02-24T13:12:54;99474.34;;;12.92;87.22
8051;BME280;4068;42.158;24.732;2023-02-24T13:15:26;99458.94;;;12.95;86.69
8051;BME280;4068;42.158;24.732;2023-02-24T13:17:55;99463.53;;;13.13;87.03
8051;BME280;4068;42.158;24.732;2023-02-24T13:20:32;99448.00;;;13.08;86.48
8051;BME280;4068;42.158;24.732;2023-02-24T13:23:00;99457.25;;;13.14;86.24
8051;BME280;4068;42.158;24.732;2023-02-24T13:25:36;99435.13;;;12.84;85.34
8051;BME280;4068;42.158;24.732;2023-02-24T13:28:05;99451.34;;;12.91;86.29
8051;BME280;4068;42.158;24.732;2023-02-24T13:30:40;99438.91;;;12.91;87.43
8051;BME280;4068;42.158;24.732;2023-02-24T13:35:45;99427.00;;;12.86;86.55
8051;BME280;4068;42.158;24.732;2023-02-24T13:38:36;99416.75;;;13.01;85.54
8051;BME280;4068;42.158;24.732;2023-02-24T13:41:18;99430.50;;;12.76;86.81
8051;BME280;4068;42.158;24.732;2023-02-24T13:43:58;99433.44;;;12.83;86.73
8051;BME280;4068;42.158;24.732;2023-02-24T13:46:27;99425.59;;;12.72;86.41
8051;BME280;4068;42.158;24.732;2023-02-24T13:49:05;99429.25;;;12.51;87.03
8051;BME280;4068;42.158;24.732;2023-02-24T13:51:51;99426.31;;;12.64;87.65
8051;BME280;4068;42.158;24.732;2023-02-24T13:57:51;99416.75;;;12.81;86.55
8051;BME280;4068;42.158;24.732;2023-02-24T14:02:21;99398.44;;;12.58;86.67
8051;BME280;4068;42.158;24.732;2023-02-24T14:04:53;99404.19;;;12.64;86.95
8051;BME280;4068;42.158;24.732;2023-02-24T14:07:25;99380.66;;;12.59;87.63
8051;BME280;4068;42.158;24.732;2023-02-24T14:10:00;99401.09;;;12.78;86.86
8051;BME280;4068;42.158;24.732;2023-02-24T14:12:33;99399.53;;;12.85;86.85
8051;BME280;4068;42.158;24.732;2023-02-24T14:15:00;99402.63;;;12.90;86.43
8051;BME280;4068;42.158;24.732;2023-02-24T14:17:32;99398.03;;;12.73;86.98
8051;BME280;4068;42.158;24.732;2023-02-24T14:22:50;99408.91;;;12.89;85.67
8051;BME280;4068;42.158;24.732;2023-02-24T14:25:18;99394.53;;;12.53;86.73
8051;BME280;4068;42.158;24.732;2023-02-24T14:27:45;99401.66;;;12.62;87.45
8051;BME280;4068;42.158;24.732;2023-02-24T14:30:34;99390.19;;;12.62;87.28
8051;BME280;4068;42.158;24.732;2023-02-24T14:33:02;99391.31;;;12.69;86.78
8051;BME280;4068;42.158;24.732;2023-02-24T14:35:41;99391.44;;;12.57;87.61
8051;BME280;4068;42.158;24.732;2023-02-24T14:38:41;99390.19;;;12.52;87.67
8051;BME280;4068;42.158;24.732;2023-02-24T14:41:27;99387.09;;;12.47;87.56
8051;BME280;4068;42.158;24.732;2023-02-24T14:43:53;99374.22;;;12.32;88.18
8051;BME280;4068;42.158;24.732;2023-02-24T14:46:19;99363.84;;;12.19;88.46
8051;BME280;4068;42.158;24.732;2023-02-24T14:48:51;99375.56;;;12.07;89.21
8051;BME280;4068;42.158;24.732;2023-02-24T14:51:24;99376.00;;;12.12;89.80
8051;BME280;4068;42.158;24.732;2023-02-24T14:53:55;99384.13;;;12.11;90.04
8051;BME280;4068;42.158;24.732;2023-02-24T14:56:27;99380.16;;;11.95;90.50
8051;BME280;4068;42.158;24.732;2023-02-24T14:59:02;99368.97;;;11.91;91.10
8051;BME280;4068;42.158;24.732;2023-02-24T15:01:35;99373.13;;;11.84;91.12
8051;BME280;4068;42.158;24.732;2023-02-24T15:04:32;99373.28;;;11.92;91.78
8051;BME280;4068;42.158;24.732;2023-02-24T15:07:00;99360.81;;;11.83;91.41
8051;BME280;4068;42.158;24.732;2023-02-24T15:09:33;99384.19;;;11.89;91.55
8051;BME280;4068;42.158;24.732;2023-02-24T15:12:07;99381.13;;;11.84;91.43
8051;BME280;4068;42.158;24.732;2023-02-24T15:14:34;99373.94;;;11.75;92.27
8051;BME280;4068;42.158;24.732;2023-02-24T15:17:02;99365.09;;;11.65;92.72
8051;BME280;4068;42.158;24.732;2023-02-24T15:19:35;99374.41;;;11.49;93.26
8051;BME280;4068;42.158;24.732;2023-02-24T15:22:02;99354.53;;;11.44;93.54
8051;BME280;4068;42.158;24.732;2023-02-24T15:24:30;99336.97;;;11.21;94.22